createdAt,value
2023-05-05T00:01:55.633Z,22.1
2023-05-05T00:04:55.574Z,22.1
2023-05-05T00:06:54.995Z,22.1
2023-05-05T00:09:55.340Z,22.1
2023-05-05T00:12:55.551Z,22.1
2023-05-05T00:17:55.596Z,22.1
2023-05-05T00:21:55.528Z,22.1
2023-05-05T00:26:55.517Z,22.1
2023-05-05T00:30:55.348Z,22.1
2023-05-05T00:33:54.670Z,22.1
2023-05-05T00:44:55.502Z,22.1
2023-05-05T00:50:55.481Z,22.1
2023-05-05T00:54:54.879Z,22.1
2023-05-05T01:02:55.024Z,22.1
2023-05-05T01:10:54.862Z,22.1
2023-05-05T01:13:55.446Z,22.1
2023-05-05T01:17:55.446Z,22.1
2023-05-05T01:18:55.434Z,22.1
2023-05-05T01:24:55.437Z,22.1
2023-05-05T01:26:55.434Z,22.1
2023-05-05T01:29:54.828Z,22.1
2023-05-05T01:34:55.405Z,22.1
2023-05-05T01:37:55.398Z,22.1
2023-05-05T01:40:55.383Z,22.1
2023-05-05T01:41:55.376Z,22.1
2023-05-05T01:49:55.385Z,22.1
2023-05-05T01:55:55.355Z,22.1
2023-05-05T01:56:55.357Z,22.1
2023-05-05T01:58:55.169Z,22.1
2023-05-05T02:09:55.332Z,22.1
2023-05-05T02:14:55.354Z,22.1
2023-05-05T02:17:55.375Z,22
2023-05-05T02:27:55.130Z,22.1
2023-05-05T02:29:55.332Z,22
2023-05-05T02:38:54.723Z,22.1
2023-05-05T02:41:55.109Z,22.1
2023-05-05T02:46:55.350Z,22
2023-05-05T02:49:55.273Z,22.1
2023-05-05T03:00:55.261Z,22.1
2023-05-05T03:02:55.383Z,22
2023-05-05T03:05:54.413Z,22
2023-05-05T03:08:55.258Z,22.1
2023-05-05T03:13:55.297Z,22
2023-05-05T03:14:55.417Z,22
2023-05-05T03:18:55.229Z,22
2023-05-05T03:21:55.219Z,22
2023-05-05T03:22:55.255Z,22
2023-05-05T03:25:55.016Z,22.1
2023-05-05T03:29:55.231Z,22
2023-05-05T03:34:55.195Z,22
2023-05-05T03:40:55.210Z,22
2023-05-05T03:42:55.187Z,22
2023-05-05T03:49:54.971Z,22
2023-05-05T03:53:54.340Z,22
2023-05-05T03:58:54.319Z,22
2023-05-05T04:04:54.349Z,22
2023-05-05T04:05:55.190Z,22
2023-05-05T04:06:55.143Z,22
2023-05-05T04:09:55.149Z,22
2023-05-05T04:17:55.159Z,22
2023-05-05T04:22:55.150Z,22
2023-05-05T04:28:55.141Z,22.1
2023-05-05T04:29:55.112Z,22
2023-05-05T04:33:54.285Z,22.1
2023-05-05T04:38:54.927Z,22.1
2023-05-05T04:43:54.263Z,22
2023-05-05T04:46:55.152Z,22
2023-05-05T05:10:55.051Z,22.2
2023-05-05T05:16:55.092Z,22.2
2023-05-05T05:23:55.019Z,22.2
2023-05-05T05:32:55.027Z,22.2
2023-05-05T05:34:54.997Z,22.3
2023-05-05T05:37:54.992Z,22.3
2023-05-05T05:40:54.421Z,22.4
2023-05-05T05:47:54.864Z,22.3
2023-05-05T05:48:54.766Z,22.3
2023-05-05T05:50:54.980Z,22.3
2023-05-05T05:53:55.416Z,22.2
2023-05-05T05:56:54.398Z,22.2
2023-05-05T06:01:54.953Z,22.3
2023-05-05T06:12:54.978Z,22.3
2023-05-05T06:13:54.978Z,22.3
2023-05-05T06:14:54.942Z,22.3
2023-05-05T06:17:54.148Z,22.3
2023-05-05T06:19:54.937Z,22.3
2023-05-05T06:25:54.925Z,22.3
2023-05-05T06:26:55.085Z,22.3
2023-05-05T06:27:54.903Z,22.3
2023-05-05T06:28:54.931Z,22.3
2023-05-05T06:36:55.026Z,22.3
2023-05-05T06:41:54.699Z,22.4
2023-05-05T06:44:54.903Z,22.4
2023-05-05T06:54:54.871Z,22.5
2023-05-05T07:06:54.854Z,22.5
2023-05-05T07:34:54.835Z,22.2
2023-05-05T07:35:54.821Z,13.6
2023-05-05T07:37:54.823Z,13.3
2023-05-05T07:38:54.829Z,13.2
2023-05-05T07:39:54.838Z,13.2
2023-05-05T07:40:54.777Z,13.3
2023-05-05T07:41:54.589Z,13.3
2023-05-05T07:42:54.588Z,13.3
2023-05-05T07:43:54.812Z,13.3
2023-05-05T07:46:54.783Z,13.3
2023-05-05T07:47:54.821Z,13.4
2023-05-05T07:48:54.828Z,13.4
2023-05-05T07:49:54.810Z,13.4
2023-05-05T07:51:54.786Z,13.4
2023-05-05T07:53:05.757Z,13.4
2023-05-05T07:53:54.795Z,13.4
2023-05-05T07:54:53.919Z,13.5
2023-05-05T07:55:54.766Z,13.5
2023-05-05T07:56:54.796Z,13.5
2023-05-05T07:57:54.763Z,13.5
2023-05-05T07:58:54.942Z,13.5
2023-05-05T07:59:54.783Z,13.5
2023-05-05T08:00:54.788Z,13.5
2023-05-05T08:01:55.120Z,13.5
2023-05-05T08:03:54.786Z,13.6
2023-05-05T08:05:54.744Z,13.6
2023-05-05T08:06:54.779Z,13.6
2023-05-05T08:07:54.760Z,13.6
2023-05-05T08:08:54.558Z,13.6
2023-05-05T08:09:54.736Z,13.7
2023-05-05T08:10:54.746Z,13.7
2023-05-05T08:11:54.743Z,13.7
2023-05-05T08:12:54.786Z,13.7
2023-05-05T08:13:54.784Z,13.7
2023-05-05T08:14:54.563Z,13.7
2023-05-05T08:15:54.893Z,13.7
2023-05-05T08:16:53.928Z,13.7
2023-05-05T08:17:54.758Z,13.8
2023-05-05T08:18:53.904Z,13.8
2023-05-05T08:19:54.734Z,13.8
2023-05-05T08:20:54.905Z,13.8
2023-05-05T08:21:54.745Z,13.8
2023-05-05T08:22:54.744Z,13.8
2023-05-05T08:23:54.731Z,13.8
2023-05-05T08:24:54.746Z,13.8
2023-05-05T08:25:54.727Z,13.9
2023-05-05T08:27:54.720Z,13.9
2023-05-05T08:28:54.727Z,13.9
2023-05-05T08:29:54.144Z,13.9
2023-05-05T08:30:54.707Z,13.9
2023-05-05T08:31:54.761Z,13.9
2023-05-05T08:32:53.942Z,14
2023-05-05T08:33:54.699Z,14
2023-05-05T08:34:54.697Z,14
2023-05-05T08:35:54.721Z,14
2023-05-05T08:37:55.435Z,14
2023-05-05T08:39:54.696Z,14.1
2023-05-05T08:41:54.134Z,14.1
2023-05-05T08:42:53.665Z,14.1
2023-05-05T08:43:54.710Z,14.1
2023-05-05T08:44:54.700Z,14.1
2023-05-05T08:46:54.752Z,14.2
2023-05-05T08:47:54.768Z,14.2
2023-05-05T08:49:54.665Z,14.2
2023-05-05T08:50:55.498Z,14.2
2023-05-05T08:51:54.712Z,14.3
2023-05-05T08:53:54.714Z,14.3
2023-05-05T08:54:54.709Z,14.3
2023-05-05T08:55:54.840Z,14.3
2023-05-05T08:56:54.676Z,14.3
2023-05-05T08:59:54.667Z,14.4
2023-05-05T09:00:54.728Z,14.4
2023-05-05T09:01:54.713Z,14.4
2023-05-05T09:02:54.203Z,14.4
2023-05-05T09:03:54.650Z,14.4
2023-05-05T09:04:54.069Z,14.4
2023-05-05T09:05:54.661Z,14.5
2023-05-05T09:06:54.656Z,14.5
2023-05-05T09:08:53.831Z,14.5
2023-05-05T09:09:54.656Z,14.5
2023-05-05T09:10:53.815Z,14.5
2023-05-05T09:11:54.643Z,14.5
2023-05-05T09:12:54.679Z,14.6
2023-05-05T09:13:54.648Z,14.6
2023-05-05T09:14:54.636Z,14.6
2023-05-05T09:15:54.647Z,14.6
2023-05-05T09:16:54.761Z,14.6
2023-05-05T09:17:54.645Z,14.6
2023-05-05T09:18:54.633Z,14.6
2023-05-05T09:21:54.624Z,14.7
2023-05-05T09:22:54.636Z,14.7
2023-05-05T09:23:55.096Z,14.7
2023-05-05T09:24:54.640Z,14.7
2023-05-05T09:25:54.614Z,14.7
2023-05-05T09:26:54.031Z,14.8
2023-05-05T09:27:54.632Z,14.8
2023-05-05T09:28:53.784Z,14.8
2023-05-05T09:29:54.599Z,14.8
2023-05-05T09:30:54.675Z,14.8
2023-05-05T09:31:54.605Z,14.8
2023-05-05T09:32:54.732Z,14.8
2023-05-05T09:33:54.608Z,14.8
2023-05-05T09:34:54.617Z,14.8
2023-05-05T09:35:54.620Z,14.9
2023-05-05T09:37:54.034Z,14.9
2023-05-05T09:38:54.601Z,14.9
2023-05-05T09:39:54.625Z,14.9
2023-05-05T09:41:54.619Z,14.9
2023-05-05T09:42:54.753Z,14.9
2023-05-05T09:43:54.588Z,14.9
2023-05-05T09:44:54.407Z,14.9
2023-05-05T09:45:54.029Z,15
2023-05-05T09:46:53.757Z,15
2023-05-05T09:52:54.596Z,15
2023-05-05T09:53:54.743Z,15
2023-05-05T09:54:53.992Z,15
2023-05-05T09:55:54.579Z,15
2023-05-05T09:56:54.603Z,15.1
2023-05-05T09:58:54.555Z,15.1
2023-05-05T09:59:54.606Z,15.1
2023-05-05T10:00:53.766Z,15.1
2023-05-05T10:01:54.638Z,15.1
2023-05-05T10:02:54.651Z,15.1
2023-05-05T10:04:54.610Z,15.1
2023-05-05T10:05:54.530Z,15.1
2023-05-05T10:06:54.551Z,15.1
2023-05-05T10:09:54.545Z,15.1
2023-05-05T10:10:54.734Z,15.1
2023-05-05T10:11:54.563Z,15.1
2023-05-05T10:12:54.647Z,15.1
2023-05-05T10:13:53.970Z,15.1
2023-05-05T10:14:54.524Z,15.1
2023-05-05T10:15:54.618Z,15.2
2023-05-05T10:16:54.559Z,15.2
2023-05-05T10:18:06.186Z,15.2
2023-05-05T10:18:54.537Z,15.2
2023-05-05T10:19:54.530Z,15.2
2023-05-05T10:20:54.520Z,15.2
2023-05-05T10:21:53.506Z,15.2
2023-05-05T10:22:53.733Z,15.2
2023-05-05T10:23:53.955Z,15.2
2023-05-05T10:24:54.520Z,15.3
2023-05-05T10:25:53.933Z,15.3
2023-05-05T10:28:54.528Z,15.3
2023-05-05T10:29:54.523Z,15.3
2023-05-05T10:30:54.512Z,15.3
2023-05-05T10:33:54.581Z,15.4
2023-05-05T10:34:54.498Z,15.4
2023-05-05T10:36:54.093Z,15.4
2023-05-05T10:37:54.502Z,15.4
2023-05-05T10:38:54.490Z,15.4
2023-05-05T10:40:54.511Z,15.4
2023-05-05T10:42:54.493Z,15.5
2023-05-05T10:43:54.510Z,15.5
2023-05-05T10:44:53.942Z,15.5
2023-05-05T10:46:54.518Z,15.5
2023-05-05T10:48:54.594Z,15.5
2023-05-05T10:49:54.623Z,15.5
2023-05-05T10:50:54.482Z,15.6
2023-05-05T10:51:53.874Z,15.6
2023-05-05T10:53:54.473Z,15.6
2023-05-05T10:54:54.463Z,15.6
2023-05-05T10:55:54.484Z,15.6
2023-05-05T10:56:54.286Z,15.6
2023-05-05T10:57:54.476Z,15.6
2023-05-05T10:59:00.051Z,15.6
2023-05-05T10:59:54.482Z,15.7
2023-05-05T11:00:54.527Z,15.7
2023-05-05T11:01:54.473Z,15.7
2023-05-05T11:02:53.653Z,15.7
2023-05-05T11:03:54.475Z,15.7
2023-05-05T11:04:54.470Z,15.7
2023-05-05T11:05:53.877Z,15.7
2023-05-05T11:06:54.448Z,15.8
2023-05-05T11:07:54.460Z,15.8
2023-05-05T11:08:53.853Z,15.8
2023-05-05T11:09:54.444Z,15.8
2023-05-05T11:10:54.443Z,15.8
2023-05-05T11:11:54.599Z,15.9
2023-05-05T11:13:54.267Z,15.9
2023-05-05T11:14:54.453Z,15.9
2023-05-05T11:15:54.454Z,15.9
2023-05-05T11:16:54.322Z,15.9
2023-05-05T11:18:54.457Z,16
2023-05-05T11:19:54.459Z,16
2023-05-05T11:20:54.238Z,16
2023-05-05T11:21:54.437Z,16
2023-05-05T11:22:54.423Z,16
2023-05-05T11:23:54.589Z,16
2023-05-05T11:24:53.841Z,16.1
2023-05-05T11:25:54.446Z,16.1
2023-05-05T11:26:54.452Z,16.1
2023-05-05T11:27:54.241Z,16.1
2023-05-05T11:28:54.441Z,16.1
2023-05-05T11:29:54.424Z,16.1
2023-05-05T11:30:53.896Z,16.1
2023-05-05T11:31:54.416Z,16.1
2023-05-05T11:32:54.438Z,16.1
2023-05-05T11:33:54.425Z,16.1
2023-05-05T11:34:54.415Z,16.1
2023-05-05T11:35:54.403Z,16.1
2023-05-05T11:36:54.433Z,16.1
2023-05-05T11:37:54.396Z,16.1
2023-05-05T11:38:54.398Z,16.1
2023-05-05T11:39:54.408Z,16.1
2023-05-05T11:40:54.431Z,16.1
2023-05-05T11:41:53.815Z,16.1
2023-05-05T11:42:54.400Z,16.1
2023-05-05T11:44:53.555Z,16.1
2023-05-05T11:45:54.405Z,16.1
2023-05-05T11:46:54.400Z,16.1
2023-05-05T11:47:55.045Z,16.1
2023-05-05T11:48:54.390Z,16
2023-05-05T11:49:54.384Z,16
2023-05-05T11:51:53.801Z,16
2023-05-05T11:52:54.386Z,16
2023-05-05T11:53:54.368Z,16
2023-05-05T11:54:53.801Z,16
2023-05-05T11:55:53.552Z,16
2023-05-05T11:58:54.375Z,15.9
2023-05-05T11:59:53.977Z,15.9
2023-05-05T12:00:54.393Z,15.9
2023-05-05T12:01:53.783Z,15.9
2023-05-05T12:02:54.232Z,15.9
2023-05-05T12:03:54.521Z,15.9
2023-05-05T12:04:54.259Z,15.9
2023-05-05T12:05:54.383Z,15.9
2023-05-05T12:06:54.181Z,15.8
2023-05-05T12:07:53.530Z,15.8
2023-05-05T12:08:54.342Z,15.8
2023-05-05T12:09:54.355Z,15.8
2023-05-05T12:10:54.516Z,15.8
2023-05-05T12:11:54.375Z,15.8
2023-05-05T12:12:55.453Z,15.8
2023-05-05T12:13:54.368Z,15.8
2023-05-05T12:14:54.351Z,15.8
2023-05-05T12:17:54.363Z,15.8
2023-05-05T12:18:54.342Z,15.8
2023-05-05T12:19:54.372Z,15.8
2023-05-05T12:20:54.325Z,15.8
2023-05-05T12:21:54.357Z,15.8
2023-05-05T12:22:54.326Z,15.8
2023-05-05T12:24:55.029Z,15.9
2023-05-05T12:25:54.323Z,15.9
2023-05-05T12:26:54.332Z,15.9
2023-05-05T12:27:54.302Z,15.9
2023-05-05T12:28:54.163Z,15.9
2023-05-05T12:29:54.316Z,15.9
2023-05-05T12:30:55.130Z,15.9
2023-05-05T12:32:54.382Z,15.9
2023-05-05T12:35:54.370Z,15.9
2023-05-05T12:36:54.480Z,15.9
2023-05-05T12:37:54.129Z,15.9
2023-05-05T12:38:54.515Z,15.9
2023-05-05T12:39:54.646Z,16
2023-05-05T12:40:53.704Z,16
2023-05-05T12:41:54.301Z,16
2023-05-05T12:42:54.316Z,16
2023-05-05T12:43:54.286Z,16
2023-05-05T12:44:54.082Z,16
2023-05-05T12:45:54.323Z,16
2023-05-05T12:46:54.285Z,16
2023-05-05T12:49:54.267Z,16
2023-05-05T12:50:54.449Z,16
2023-05-05T12:51:54.324Z,16
2023-05-05T12:53:54.289Z,16
2023-05-05T12:55:54.266Z,16
2023-05-05T12:56:53.451Z,16
2023-05-05T12:57:54.057Z,16
2023-05-05T12:58:54.263Z,16
2023-05-05T12:59:54.290Z,16.1
2023-05-05T13:00:55.193Z,16.1
2023-05-05T13:01:54.347Z,16.1
2023-05-05T13:02:54.364Z,16.1
2023-05-05T13:04:54.256Z,16.1
2023-05-05T13:05:53.077Z,16.1
2023-05-05T13:06:54.592Z,16.1
2023-05-05T13:07:54.252Z,16.1
2023-05-05T13:10:53.617Z,16.1
2023-05-05T13:11:54.269Z,16.1
2023-05-05T13:12:54.291Z,16.1
2023-05-05T13:13:54.238Z,16.1
2023-05-05T13:14:54.252Z,16.1
2023-05-05T13:15:54.355Z,16.1
2023-05-05T13:16:54.260Z,16.1
2023-05-05T13:17:54.242Z,16.1
2023-05-05T13:18:54.209Z,16.1
2023-05-05T13:19:54.301Z,16.1
2023-05-05T13:20:54.263Z,16.1
2023-05-05T13:21:53.648Z,16.2
2023-05-05T13:22:54.213Z,16.2
2023-05-05T13:23:55.959Z,16.2
2023-05-05T13:26:54.225Z,16.2
2023-05-05T13:27:54.238Z,16.2
2023-05-05T13:28:53.655Z,16.2
2023-05-05T13:29:54.213Z,16.2
2023-05-05T13:30:54.246Z,16.2
2023-05-05T13:33:54.242Z,16.2
2023-05-05T13:34:54.187Z,16.2
2023-05-05T13:36:54.211Z,16.2
2023-05-05T13:37:54.230Z,16.2
2023-05-05T13:38:54.191Z,16.2
2023-05-05T13:41:54.197Z,16.2
2023-05-05T13:42:54.197Z,16.2
2023-05-05T13:44:53.594Z,16.2
2023-05-05T13:45:55.912Z,16.2
2023-05-05T13:46:54.505Z,16.2
2023-05-05T13:47:54.230Z,16.2
2023-05-05T13:48:56.686Z,16.1
2023-05-05T13:49:54.186Z,16.1
2023-05-05T13:50:54.176Z,16.1
2023-05-05T13:52:54.193Z,16.1
2023-05-05T13:53:54.166Z,16.1
2023-05-05T13:54:54.176Z,16.1
2023-05-05T13:55:54.187Z,16.1
2023-05-05T13:56:54.025Z,16.1
2023-05-05T13:57:54.154Z,16.1
2023-05-05T13:58:53.343Z,16.1
2023-05-05T13:59:54.201Z,16.1
2023-05-05T14:00:54.196Z,16.1
2023-05-05T14:01:54.166Z,16.1
2023-05-05T14:02:54.214Z,16.1
2023-05-05T14:03:55.569Z,16.1
2023-05-05T14:04:53.334Z,16.1
2023-05-05T14:05:53.353Z,16.1
2023-05-05T14:06:54.177Z,16.1
2023-05-05T14:07:53.985Z,16.1
2023-05-05T14:08:54.339Z,16.1
2023-05-05T14:09:53.555Z,16.1
2023-05-05T14:10:54.175Z,16.1
2023-05-05T14:12:54.155Z,16.1
2023-05-05T14:13:53.940Z,16.1
2023-05-05T14:14:53.974Z,16.1
2023-05-05T14:15:54.178Z,16.1
2023-05-05T14:16:54.196Z,16.1
2023-05-05T14:17:54.181Z,16.1
2023-05-05T14:18:53.926Z,16.1
2023-05-05T14:19:54.326Z,16.1
2023-05-05T14:22:54.129Z,16.1
2023-05-05T14:23:54.148Z,16.1
2023-05-05T14:24:54.129Z,16.1
2023-05-05T14:25:53.548Z,16.1
2023-05-05T14:26:53.306Z,16.1
2023-05-05T14:28:54.122Z,16.1
2023-05-05T14:29:54.156Z,16.1
2023-05-05T14:30:54.130Z,16.1
2023-05-05T14:31:54.121Z,16.1
2023-05-05T14:32:54.308Z,16.1
2023-05-05T14:33:54.114Z,16.1
2023-05-05T14:34:54.125Z,16.1
2023-05-05T14:35:54.111Z,16.1
2023-05-05T14:36:53.914Z,16.1
2023-05-05T14:37:54.128Z,16.1
2023-05-05T14:38:54.183Z,16.1
2023-05-05T14:39:54.120Z,16.1
2023-05-05T14:40:54.109Z,16.1
2023-05-05T14:41:54.120Z,16.1
2023-05-05T14:42:54.091Z,16.1
2023-05-05T14:43:53.661Z,16.1
2023-05-05T14:44:54.107Z,16.1
2023-05-05T14:46:53.890Z,16.1
2023-05-05T14:47:54.110Z,16.1
2023-05-05T14:48:54.091Z,16.1
2023-05-05T14:49:54.085Z,16.1
2023-05-05T14:51:55.492Z,16.2
2023-05-05T14:52:54.068Z,16.2
2023-05-05T14:54:53.867Z,16.2
2023-05-05T14:55:54.089Z,16.2
2023-05-05T14:56:53.251Z,16.2
2023-05-05T14:57:54.075Z,16.2
2023-05-05T14:58:54.082Z,16.2
2023-05-05T14:59:53.258Z,16.2
2023-05-05T15:00:54.081Z,16.2
2023-05-05T15:01:53.276Z,16.2
2023-05-05T15:02:54.164Z,16.2
2023-05-05T15:03:53.382Z,16.2
2023-05-05T15:04:53.856Z,16.2
2023-05-05T15:05:54.055Z,16.2
2023-05-05T15:06:54.044Z,16.2
2023-05-05T15:08:54.061Z,16.2
2023-05-05T15:09:54.066Z,16.2
2023-05-05T15:10:53.213Z,16.2
2023-05-05T15:11:53.863Z,16.2
2023-05-05T15:12:53.871Z,16.1
2023-05-05T15:13:54.041Z,16.1
2023-05-05T15:14:54.084Z,16.1
2023-05-05T15:15:53.256Z,16.1
2023-05-05T15:16:54.018Z,16.1
2023-05-05T15:17:53.524Z,16.1
2023-05-05T15:18:54.024Z,16.1
2023-05-05T15:19:54.026Z,16.1
2023-05-05T15:20:54.033Z,16.1
2023-05-05T15:21:54.162Z,16.1
2023-05-05T15:22:53.456Z,16.1
2023-05-05T15:23:53.204Z,16.1
2023-05-05T15:24:54.041Z,16.1
2023-05-05T15:25:54.064Z,16.1
2023-05-05T15:26:53.183Z,16
2023-05-05T15:27:53.474Z,16
2023-05-05T15:28:53.116Z,16
2023-05-05T15:29:54.026Z,16
2023-05-05T15:30:54.006Z,16
2023-05-05T15:31:54.059Z,16
2023-05-05T15:32:54.025Z,16
2023-05-05T15:33:53.174Z,16
2023-05-05T15:34:53.810Z,16
2023-05-05T15:36:53.950Z,16
2023-05-05T15:37:53.996Z,16
2023-05-05T15:38:53.995Z,16
2023-05-05T15:39:54.032Z,16
2023-05-05T15:40:54.054Z,16
2023-05-05T15:41:53.997Z,16
2023-05-05T15:42:53.989Z,16
2023-05-05T15:43:54.145Z,15.9
2023-05-05T15:44:54.015Z,15.9
2023-05-05T15:45:54.027Z,15.9
2023-05-05T15:46:54.138Z,15.9
2023-05-05T15:47:53.208Z,15.9
2023-05-05T15:48:53.992Z,15.9
2023-05-05T15:49:54.004Z,15.9
2023-05-05T15:50:53.786Z,15.9
2023-05-05T15:52:53.988Z,15.9
2023-05-05T15:53:54.025Z,15.9
2023-05-05T15:54:53.964Z,15.9
2023-05-05T15:55:53.997Z,15.9
2023-05-05T15:57:53.972Z,15.9
2023-05-05T15:58:53.987Z,15.9
2023-05-05T15:59:53.982Z,15.9
2023-05-05T16:00:53.838Z,15.8
2023-05-05T16:01:53.945Z,15.8
2023-05-05T16:02:53.415Z,15.8
2023-05-05T16:03:53.981Z,15.8
2023-05-05T16:04:53.377Z,15.8
2023-05-05T16:05:53.946Z,15.8
2023-05-05T16:06:53.951Z,15.8
2023-05-05T16:07:53.965Z,15.8
2023-05-05T16:08:53.974Z,15.8
2023-05-05T16:09:53.966Z,15.8
2023-05-05T16:10:53.971Z,15.8
2023-05-05T16:11:53.776Z,15.8
2023-05-05T16:12:54.019Z,15.8
2023-05-05T16:13:53.739Z,15.8
2023-05-05T16:14:53.095Z,15.8
2023-05-05T16:15:53.937Z,15.8
2023-05-05T16:16:54.047Z,15.8
2023-05-05T16:17:54.012Z,15.8
2023-05-05T16:18:53.947Z,15.8
2023-05-05T16:19:53.932Z,15.8
2023-05-05T16:20:53.936Z,15.8
2023-05-05T16:21:53.936Z,15.8
2023-05-05T16:22:53.921Z,15.8
2023-05-05T16:23:53.934Z,15.8
2023-05-05T16:24:53.927Z,15.8
2023-05-05T16:25:53.752Z,15.8
2023-05-05T16:26:53.926Z,15.8
2023-05-05T16:27:53.956Z,15.8
2023-05-05T16:28:53.926Z,15.8
2023-05-05T16:29:53.927Z,15.8
2023-05-05T16:30:53.341Z,15.8
2023-05-05T16:31:53.552Z,15.8
2023-05-05T16:32:53.530Z,15.8
2023-05-05T16:33:53.893Z,15.8
2023-05-05T16:34:53.913Z,15.8
2023-05-05T16:35:53.923Z,15.8
2023-05-05T16:36:53.898Z,15.8
2023-05-05T16:37:53.920Z,15.8
2023-05-05T16:38:53.913Z,15.8
2023-05-05T16:39:53.907Z,15.8
2023-05-05T16:40:53.695Z,15.8
2023-05-05T16:41:53.878Z,15.8
2023-05-05T16:42:53.884Z,15.8
2023-05-05T16:43:53.920Z,15.8
2023-05-05T16:44:53.894Z,15.8
2023-05-05T16:46:53.861Z,15.8
2023-05-05T16:47:53.970Z,15.8
2023-05-05T16:48:53.900Z,15.7
2023-05-05T16:49:53.911Z,15.7
2023-05-05T16:50:53.276Z,15.7
2023-05-05T16:51:53.048Z,15.7
2023-05-05T16:53:53.867Z,15.7
2023-05-05T16:54:53.899Z,15.7
2023-05-05T16:55:53.936Z,15.7
2023-05-05T16:56:53.876Z,15.7
2023-05-05T16:57:53.872Z,15.7
2023-05-05T16:58:53.056Z,15.7
2023-05-05T16:59:53.862Z,15.7
2023-05-05T17:00:53.873Z,15.7
2023-05-05T17:01:53.948Z,15.7
2023-05-05T17:02:53.925Z,15.7
2023-05-05T17:03:53.890Z,15.7
2023-05-05T17:04:53.886Z,15.7
2023-05-05T17:05:53.953Z,15.7
2023-05-05T17:06:53.863Z,15.7
2023-05-05T17:07:53.873Z,15.7
2023-05-05T17:08:53.296Z,15.7
2023-05-05T17:09:53.672Z,15.7
2023-05-05T17:10:53.882Z,15.7
2023-05-05T17:11:53.853Z,15.7
2023-05-05T17:12:53.059Z,15.6
2023-05-05T17:13:53.876Z,15.6
2023-05-05T17:14:53.856Z,15.6
2023-05-05T17:15:53.887Z,15.6
2023-05-05T17:16:53.848Z,15.6
2023-05-05T17:17:53.891Z,15.6
2023-05-05T17:18:53.831Z,15.6
2023-05-05T17:19:53.847Z,15.6
2023-05-05T17:20:53.843Z,15.6
2023-05-05T17:21:53.822Z,15.6
2023-05-05T17:22:53.858Z,15.6
2023-05-05T17:23:53.846Z,15.6
2023-05-05T17:24:53.826Z,15.6
2023-05-05T17:26:53.814Z,15.6
2023-05-05T17:27:53.839Z,15.6
2023-05-05T17:28:53.814Z,15.6
2023-05-05T17:29:53.002Z,15.6
2023-05-05T17:30:53.864Z,15.6
2023-05-05T17:31:53.882Z,15.6
2023-05-05T17:32:53.853Z,15.6
2023-05-05T17:33:53.808Z,15.6
2023-05-05T17:34:53.810Z,15.6
2023-05-05T17:35:53.809Z,15.5
2023-05-05T17:37:53.810Z,15.5
2023-05-05T17:38:53.821Z,15.5
2023-05-05T17:39:53.831Z,15.5
2023-05-05T17:40:53.806Z,15.5
2023-05-05T17:41:53.783Z,15.5
2023-05-05T17:42:53.816Z,15.5
2023-05-05T17:43:52.993Z,15.5
2023-05-05T17:44:53.790Z,15.5
2023-05-05T17:45:53.845Z,15.5
2023-05-05T17:46:53.811Z,15.5
2023-05-05T17:47:53.839Z,15.5
2023-05-05T17:48:53.867Z,15.5
2023-05-05T17:49:53.834Z,15.5
2023-05-05T17:50:53.794Z,15.5
2023-05-05T17:51:53.786Z,15.4
2023-05-05T17:52:53.601Z,15.4
2023-05-05T17:53:53.794Z,15.4
2023-05-05T17:54:53.786Z,15.4
2023-05-05T17:55:53.563Z,15.4
2023-05-05T17:56:52.969Z,15.4
2023-05-05T17:57:53.759Z,15.4
2023-05-05T17:58:53.780Z,15.4
2023-05-05T17:59:52.945Z,15.4
2023-05-05T18:00:53.805Z,15.4
2023-05-05T18:01:53.760Z,15.4
2023-05-05T18:02:53.822Z,15.3
2023-05-05T18:03:53.820Z,15.3
2023-05-05T18:04:53.928Z,15.3
2023-05-05T18:05:53.762Z,15.3
2023-05-05T18:06:53.755Z,15.3
2023-05-05T18:07:53.765Z,15.3
2023-05-05T18:08:53.779Z,15.3
2023-05-05T18:09:53.767Z,15.3
2023-05-05T18:10:53.782Z,15.3
2023-05-05T18:11:53.753Z,15.3
2023-05-05T18:12:52.982Z,15.3
2023-05-05T18:13:53.792Z,15.3
2023-05-05T18:14:53.767Z,15.2
2023-05-05T18:15:53.771Z,15.2
2023-05-05T18:16:53.741Z,15.2
2023-05-05T18:17:53.752Z,15.2
2023-05-05T18:18:53.787Z,15.2
2023-05-05T18:19:53.161Z,15.2
2023-05-05T18:20:53.533Z,15.2
2023-05-05T18:21:53.722Z,15.2
2023-05-05T18:22:53.720Z,15.2
2023-05-05T18:23:57.248Z,15.2
2023-05-05T18:24:53.751Z,15.2
2023-05-05T18:25:53.724Z,15.2
2023-05-05T18:26:53.740Z,15.2
2023-05-05T18:28:53.764Z,15.2
2023-05-05T18:29:53.740Z,15.2
2023-05-05T18:30:53.136Z,15.1
2023-05-05T18:31:53.798Z,15.1
2023-05-05T18:32:53.780Z,15.1
2023-05-05T18:33:53.725Z,15.1
2023-05-05T18:34:53.910Z,15.1
2023-05-05T18:35:53.713Z,15.1
2023-05-05T18:36:53.723Z,15.1
2023-05-05T18:37:53.545Z,15.1
2023-05-05T18:38:53.124Z,15.1
2023-05-05T18:39:53.715Z,15.1
2023-05-05T18:40:52.904Z,15.1
2023-05-05T18:41:53.717Z,15.1
2023-05-05T18:42:53.715Z,15.1
2023-05-05T18:43:53.706Z,15.1
2023-05-05T18:44:53.536Z,15.1
2023-05-05T18:45:53.761Z,15.1
2023-05-05T18:46:52.897Z,15
2023-05-05T18:47:53.175Z,15
2023-05-05T18:49:53.691Z,15
2023-05-05T18:50:52.889Z,15
2023-05-05T18:51:53.744Z,15
2023-05-05T18:52:53.709Z,15
2023-05-05T18:53:52.870Z,15
2023-05-05T18:54:53.687Z,15
2023-05-05T18:56:53.514Z,15
2023-05-05T18:57:53.114Z,15
2023-05-05T18:58:53.708Z,15
2023-05-05T18:59:53.113Z,15
2023-05-05T19:00:53.692Z,15
2023-05-05T19:01:53.675Z,14.9
2023-05-05T19:02:53.742Z,14.9
2023-05-05T19:03:53.718Z,14.9
2023-05-05T19:04:53.707Z,14.9
2023-05-05T19:05:53.709Z,14.9
2023-05-05T19:06:53.688Z,14.9
2023-05-05T19:07:53.696Z,14.9
2023-05-05T19:08:52.871Z,14.9
2023-05-05T19:09:53.677Z,14.9
2023-05-05T19:10:53.654Z,14.9
2023-05-05T19:11:53.683Z,14.9
2023-05-05T19:12:53.696Z,14.9
2023-05-05T19:13:52.824Z,14.8
2023-05-05T19:14:53.682Z,14.8
2023-05-05T19:15:53.676Z,14.8
2023-05-05T19:16:53.690Z,14.8
2023-05-05T19:17:53.767Z,14.8
2023-05-05T19:18:53.645Z,14.8
2023-05-05T19:19:53.653Z,14.8
2023-05-05T19:21:53.457Z,14.8
2023-05-05T19:22:53.655Z,14.8
2023-05-05T19:23:53.669Z,14.8
2023-05-05T19:24:53.662Z,14.8
2023-05-05T19:25:53.433Z,14.8
2023-05-05T19:26:53.820Z,14.7
2023-05-05T19:27:53.657Z,14.7
2023-05-05T19:28:53.671Z,14.7
2023-05-05T19:29:53.184Z,14.7
2023-05-05T19:30:53.640Z,14.7
2023-05-05T19:31:52.882Z,14.7
2023-05-05T19:32:53.762Z,14.7
2023-05-05T19:33:53.622Z,14.7
2023-05-05T19:34:53.629Z,14.7
2023-05-05T19:35:53.623Z,14.7
2023-05-05T19:37:53.652Z,14.6
2023-05-05T19:38:53.647Z,14.6
2023-05-05T19:39:53.622Z,14.6
2023-05-05T19:40:53.052Z,14.6
2023-05-05T19:41:53.636Z,14.6
2023-05-05T19:42:52.793Z,14.6
2023-05-05T19:43:53.605Z,14.6
2023-05-05T19:45:53.665Z,14.6
2023-05-05T19:46:53.767Z,14.6
2023-05-05T19:47:53.668Z,14.5
2023-05-05T19:48:53.413Z,14.5
2023-05-05T19:49:53.425Z,14.5
2023-05-05T19:50:53.008Z,14.5
2023-05-05T19:51:53.613Z,14.5
2023-05-05T19:53:53.606Z,14.5
2023-05-05T19:54:53.798Z,14.5
2023-05-05T19:55:53.435Z,14.5
2023-05-05T19:56:55.223Z,14.5
2023-05-05T19:57:52.793Z,14.5
2023-05-05T19:58:53.593Z,14.4
2023-05-05T19:59:53.616Z,14.4
2023-05-05T20:00:53.609Z,14.4
2023-05-05T20:01:53.631Z,14.4
2023-05-05T20:02:52.843Z,14.4
2023-05-05T20:03:53.752Z,14.4
2023-05-05T20:04:53.576Z,14.4
2023-05-05T20:05:53.004Z,14.4
2023-05-05T20:06:53.571Z,14.4
2023-05-05T20:09:53.585Z,14.3
2023-05-05T20:10:53.738Z,14.3
2023-05-05T20:11:53.603Z,14.3
2023-05-05T20:12:53.421Z,14.3
2023-05-05T20:13:53.600Z,14.3
2023-05-05T20:14:52.752Z,14.3
2023-05-05T20:16:53.598Z,14.3
2023-05-05T20:17:53.580Z,14.3
2023-05-05T20:18:53.377Z,14.2
2023-05-05T20:19:53.571Z,14.2
2023-05-05T20:20:53.571Z,14.2
2023-05-05T20:21:53.536Z,14.2
2023-05-05T20:22:53.562Z,14.2
2023-05-05T20:24:53.558Z,14.2
2023-05-05T20:25:52.979Z,14.2
2023-05-05T20:26:53.568Z,14.2
2023-05-05T20:27:53.570Z,14.2
2023-05-05T20:28:53.401Z,14.1
2023-05-05T20:29:53.347Z,14.1
2023-05-05T20:30:53.551Z,14.1
2023-05-05T20:31:53.007Z,14.1
2023-05-05T20:32:53.637Z,14.1
2023-05-05T20:33:53.545Z,14.1
2023-05-05T20:35:53.545Z,14.1
2023-05-05T20:36:52.987Z,14.1
2023-05-05T20:37:53.567Z,14.1
2023-05-05T20:38:53.539Z,14.1
2023-05-05T20:39:53.557Z,14.1
2023-05-05T20:41:53.541Z,14
2023-05-05T20:42:53.564Z,14
2023-05-05T20:43:53.564Z,14
2023-05-05T20:44:52.967Z,14
2023-05-05T20:46:53.589Z,14
2023-05-05T20:47:53.557Z,14
2023-05-05T20:49:53.528Z,14
2023-05-05T20:51:53.563Z,14
2023-05-05T20:52:53.505Z,13.9
2023-05-05T20:53:53.517Z,13.9
2023-05-05T20:54:53.512Z,13.9
2023-05-05T20:55:52.348Z,13.9
2023-05-05T20:56:53.529Z,13.9
2023-05-05T20:57:53.511Z,13.9
2023-05-05T20:58:53.513Z,13.9
2023-05-05T20:59:53.508Z,13.9
2023-05-05T21:00:52.741Z,13.9
2023-05-05T21:01:53.611Z,13.9
2023-05-05T21:02:53.648Z,13.9
2023-05-05T21:03:52.956Z,13.8